General Aviation Weather

Text Reports

Enter one or more of the following location identifiers separated by a space:

Zip Code, Four-Character ICAO or Three-Character IATA airport codes.

METAR - Aviation Routine Weather Report
KY50 - Wautoma, Wisconsin
Updated at 10:56 AM GMT on April 27, 2015 (5:56 AM CDT):
METAR KY50 271056Z AUTO 00000KT 10SM CLR M01/M02 A3014 RMK AO2 TSNO T10051022 SLP207
TAF - Terminal Area Forecast
KY50 - Wautoma, Wisconsin
Updated at 10:56 AM GMT on April 27, 2015 (5:56 AM CDT):
No TAF is currently available for this location.
Decoded:
No decoded TAF is available.
PIREP - Pilot Weather Report
KY50 - Wautoma, Wisconsin
Updated at 10:56 AM GMT on April 27, 2015 (5:56 AM CDT):
No PIREP is currently available for this location.
AIRMET - Airmens Meteorological Information
KY50 - Wautoma, Wisconsin
Updated at 10:56 AM GMT on April 27, 2015 (5:56 AM CDT):
No AIRMET is currently available for this location.
SIGMET - Significant Meteorological Information
KY50 - Wautoma, Wisconsin
Updated at 10:56 AM GMT on April 27, 2015 (5:56 AM CDT):
No SIGMET is currently available for this location.
NOTAM - Notice to Airmen
KY50 - Wautoma, Wisconsin
Updated at 10:56 AM GMT on April 27, 2015 (5:56 AM CDT):
No NOTAM is currently available for this location.
Forecast Area
KY50 - Wautoma, Wisconsin
Updated at 10:56 AM GMT on April 27, 2015 (5:56 AM CDT):
No NOTAM is currently available for this location.
Aviation Weather Maps